createdAt,value
2019-02-23T00:00:03.767Z,1015.54
2019-02-23T00:01:03.737Z,1015.58
2019-02-23T00:02:03.703Z,1015.59
2019-02-23T00:03:03.684Z,1015.60
2019-02-23T00:04:03.696Z,1015.60
2019-02-23T00:05:03.671Z,1015.59
2019-02-23T00:06:03.664Z,1015.57
2019-02-23T00:07:03.678Z,1015.54
2019-02-23T00:08:03.667Z,1015.59
2019-02-23T00:09:03.635Z,1015.50
2019-02-23T00:10:03.610Z,1015.60
2019-02-23T00:11:03.599Z,1015.53
2019-02-23T00:12:04.637Z,1015.59
2019-02-23T00:13:03.621Z,1015.55
2019-02-23T00:14:03.588Z,1015.61
2019-02-23T00:15:03.569Z,1015.59
2019-02-23T00:16:03.556Z,1015.60
2019-02-23T00:17:03.556Z,1015.56
2019-02-23T00:18:03.547Z,1015.63
2019-02-23T00:19:03.540Z,1015.66
2019-02-23T00:20:03.549Z,1015.61
2019-02-23T00:21:03.518Z,1015.62
2019-02-23T00:22:03.493Z,1015.62
2019-02-23T00:23:03.479Z,1015.63
2019-02-23T00:24:03.466Z,1015.64
2019-02-23T00:25:03.478Z,1015.60
2019-02-23T00:26:03.494Z,1015.60
2019-02-23T00:27:03.462Z,1015.63
2019-02-23T00:28:03.435Z,1015.60
2019-02-23T00:29:03.430Z,1015.60
2019-02-23T00:30:03.453Z,1015.56
2019-02-23T00:31:03.437Z,1015.60
2019-02-23T00:32:03.412Z,1015.61
2019-02-23T00:33:03.396Z,1015.59
2019-02-23T00:34:03.383Z,1015.72
2019-02-23T00:35:03.357Z,1015.65
2019-02-23T00:36:03.375Z,1015.71
2019-02-23T00:37:03.363Z,1015.75
2019-02-23T00:38:03.328Z,1015.67
2019-02-23T00:39:03.316Z,1015.67
2019-02-23T00:40:03.330Z,1015.65
2019-02-23T00:41:03.318Z,1015.63
2019-02-23T00:42:03.303Z,1015.63
2019-02-23T00:43:03.333Z,1015.61
2019-02-23T00:44:03.286Z,1015.58
2019-02-23T00:45:03.284Z,1015.58
2019-02-23T00:46:03.258Z,1015.55
2019-02-23T00:47:03.241Z,1015.58
2019-02-23T00:48:03.233Z,1015.54
2019-02-23T00:49:03.228Z,1015.55
2019-02-23T00:50:03.222Z,1015.47
2019-02-23T00:51:03.220Z,1015.50
2019-02-23T00:52:03.233Z,1015.51
2019-02-23T00:53:03.224Z,1015.54
2019-02-23T00:54:03.180Z,1015.64
2019-02-23T00:55:03.198Z,1015.62
2019-02-23T00:56:03.168Z,1015.66
2019-02-23T00:57:03.135Z,1015.60
2019-02-23T00:58:03.141Z,1015.59
2019-02-23T00:59:03.115Z,1015.65
2019-02-23T01:00:03.134Z,1015.54
2019-02-23T01:01:03.114Z,1015.56
2019-02-23T01:02:03.093Z,1015.58
2019-02-23T01:03:03.075Z,1015.57
2019-02-23T01:04:03.094Z,1015.51
2019-02-23T01:05:03.075Z,1015.55
2019-02-23T01:06:03.039Z,1015.54
2019-02-23T01:07:03.053Z,1015.58
2019-02-23T01:08:03.021Z,1015.48
2019-02-23T01:09:03.016Z,1015.47
2019-02-23T01:10:03.011Z,1015.41
2019-02-23T01:11:02.991Z,1015.42
2019-02-23T01:12:02.979Z,1015.45
2019-02-23T01:13:03.011Z,1015.48
2019-02-23T01:14:03.029Z,1015.44
2019-02-23T01:15:02.957Z,1015.45
2019-02-23T01:16:02.949Z,1015.40
2019-02-23T01:17:02.923Z,1015.42
2019-02-23T01:18:02.916Z,1015.47
2019-02-23T01:19:02.931Z,1015.45
2019-02-23T01:20:02.897Z,1015.42
2019-02-23T01:21:02.888Z,1015.38
2019-02-23T01:22:02.934Z,1015.41
2019-02-23T01:23:02.899Z,1015.40
2019-02-23T01:24:02.866Z,1015.41
2019-02-23T01:25:02.872Z,1015.43
2019-02-23T01:26:02.870Z,1015.41
2019-02-23T01:27:02.918Z,1015.38
2019-02-23T01:28:02.837Z,1015.41
2019-02-23T01:29:02.803Z,1015.39
2019-02-23T01:30:02.793Z,1015.41
2019-02-23T01:31:02.819Z,1015.39
2019-02-23T01:32:02.786Z,1015.34
2019-02-23T01:33:02.765Z,1015.33
2019-02-23T01:34:02.750Z,1015.28
2019-02-23T01:35:02.751Z,1015.34
2019-02-23T01:36:02.777Z,1015.37
2019-02-23T01:37:02.749Z,1015.33
2019-02-23T01:38:02.715Z,1015.36
2019-02-23T01:39:02.713Z,1015.32
2019-02-23T01:40:02.726Z,1015.42
2019-02-23T01:41:02.718Z,1015.35
2019-02-23T01:42:02.692Z,1015.40
2019-02-23T01:43:02.683Z,1015.41
2019-02-23T01:44:02.679Z,1015.37
2019-02-23T01:45:02.646Z,1015.40
2019-02-23T01:46:02.636Z,1015.41
2019-02-23T01:47:02.633Z,1015.38
2019-02-23T01:48:02.614Z,1015.47
2019-02-23T01:49:02.651Z,1015.40
2019-02-23T01:50:02.641Z,1015.46
2019-02-23T01:51:02.592Z,1015.43
2019-02-23T01:52:02.571Z,1015.45
2019-02-23T01:53:02.561Z,1015.44
2019-02-23T01:54:02.574Z,1015.39
2019-02-23T01:55:02.578Z,1015.35
2019-02-23T01:56:02.545Z,1015.43
2019-02-23T01:57:02.543Z,1015.37
2019-02-23T01:58:02.509Z,1015.34
2019-02-23T01:59:02.581Z,1015.36
2019-02-23T02:00:02.512Z,1015.35
2019-02-23T02:01:02.503Z,1015.32
2019-02-23T02:02:02.466Z,1015.28
2019-02-23T02:03:02.507Z,1015.31
2019-02-23T02:04:02.465Z,1015.32
2019-02-23T02:05:02.470Z,1015.35
2019-02-23T02:06:02.424Z,1015.33
2019-02-23T02:07:02.510Z,1015.34
2019-02-23T02:08:02.452Z,1015.33
2019-02-23T02:09:02.416Z,1015.28
2019-02-23T02:10:02.394Z,1015.27
2019-02-23T02:11:02.377Z,1015.23
2019-02-23T02:12:02.391Z,1015.27
2019-02-23T02:13:02.388Z,1015.25
2019-02-23T02:14:02.356Z,1015.23
2019-02-23T02:15:02.334Z,1015.25
2019-02-23T02:16:02.349Z,1015.25
2019-02-23T02:17:02.360Z,1015.24
2019-02-23T02:18:02.327Z,1015.29
2019-02-23T02:19:02.319Z,1015.24
2019-02-23T02:20:10.456Z,1015.26
2019-02-23T02:21:03.273Z,1015.28
2019-02-23T02:22:02.320Z,1015.28
2019-02-23T02:23:02.282Z,1015.29
2019-02-23T02:24:02.242Z,1015.26
2019-02-23T02:25:02.299Z,1015.31
2019-02-23T02:26:02.273Z,1015.29
2019-02-23T02:27:02.224Z,1015.28
2019-02-23T02:28:02.210Z,1015.29
2019-02-23T02:29:02.192Z,1015.32
2019-02-23T02:30:02.202Z,1015.34
2019-02-23T02:31:02.209Z,1015.37
2019-02-23T02:32:02.175Z,1015.37
2019-02-23T02:33:02.150Z,1015.32
2019-02-23T02:34:02.135Z,1015.37
2019-02-23T02:35:02.157Z,1015.29
2019-02-23T02:36:02.153Z,1015.30
2019-02-23T02:37:02.172Z,1015.28
2019-02-23T02:38:02.104Z,1015.29
2019-02-23T02:39:02.143Z,1015.29
2019-02-23T02:40:02.132Z,1015.36
2019-02-23T02:41:02.079Z,1015.29
2019-02-23T02:42:02.067Z,1015.33
2019-02-23T02:43:02.118Z,1015.35
2019-02-23T02:44:02.088Z,1015.35
2019-02-23T02:45:02.077Z,1015.36
2019-02-23T02:46:02.041Z,1015.34
2019-02-23T02:47:02.013Z,1015.36
2019-02-23T02:48:01.998Z,1015.34
2019-02-23T02:49:02.025Z,1015.34
2019-02-23T02:50:01.994Z,1015.30
2019-02-23T02:51:01.989Z,1015.26
2019-02-23T02:52:01.961Z,1015.24
2019-02-23T02:53:01.999Z,1015.24
2019-02-23T02:54:01.975Z,1015.29
2019-02-23T02:55:01.945Z,1015.27
2019-02-23T02:56:01.945Z,1015.22
2019-02-23T02:57:01.922Z,1015.25
2019-02-23T02:58:01.951Z,1015.25
2019-02-23T02:59:01.914Z,1015.23
2019-02-23T03:00:01.907Z,1015.26
2019-02-23T03:01:01.890Z,1015.25
2019-02-23T03:02:01.861Z,1015.22
2019-02-23T03:03:01.886Z,1015.22
2019-02-23T03:04:01.853Z,1015.24
2019-02-23T03:05:01.836Z,1015.18
2019-02-23T03:06:01.811Z,1015.12
2019-02-23T03:07:01.827Z,1015.20
2019-02-23T03:08:01.797Z,1015.15
2019-02-23T03:09:01.791Z,1015.15
2019-02-23T03:10:01.771Z,1015.10
2019-02-23T03:11:01.771Z,1015.12
2019-02-23T03:12:01.767Z,1015.14
2019-02-23T03:13:01.774Z,1015.11
2019-02-23T03:14:01.744Z,1015.13
2019-02-23T03:15:01.723Z,1015.15
2019-02-23T03:16:01.726Z,1015.12
2019-02-23T03:17:01.744Z,1015.18
2019-02-23T03:18:01.705Z,1015.14
2019-02-23T03:19:01.780Z,1015.14
2019-02-23T03:20:01.685Z,1015.15
2019-02-23T03:21:01.700Z,1015.13
2019-02-23T03:22:01.683Z,1015.10
2019-02-23T03:23:01.641Z,1015.07
2019-02-23T03:24:01.628Z,1015.13
2019-02-23T03:25:01.692Z,1015.09
2019-02-23T03:26:01.658Z,1015.06
2019-02-23T03:27:01.623Z,1015.09
2019-02-23T03:28:01.598Z,1015.19
2019-02-23T03:29:01.629Z,1015.14
2019-02-23T03:30:01.614Z,1015.14
2019-02-23T03:31:01.588Z,1015.19
2019-02-23T03:32:01.565Z,1015.19
2019-02-23T03:33:01.543Z,1015.23
2019-02-23T03:34:01.578Z,1015.21
2019-02-23T03:35:01.537Z,1015.18
2019-02-23T03:36:01.530Z,1015.15
2019-02-23T03:37:01.531Z,1015.14
2019-02-23T03:38:01.480Z,1015.13
2019-02-23T03:39:01.472Z,1015.13
2019-02-23T03:40:01.500Z,1015.16
2019-02-23T03:41:01.456Z,1015.18
2019-02-23T03:42:01.439Z,1015.15
2019-02-23T03:43:01.494Z,1015.09
2019-02-23T03:44:01.451Z,1015.12
2019-02-23T03:45:01.440Z,1015.10
2019-02-23T03:46:01.397Z,1015.07
2019-02-23T03:47:01.388Z,1015.09
2019-02-23T03:48:01.382Z,1015.16
2019-02-23T03:49:01.389Z,1015.15
2019-02-23T03:50:01.382Z,1015.16
2019-02-23T03:51:01.350Z,1015.19
2019-02-23T03:52:01.341Z,1015.11
2019-02-23T03:53:01.368Z,1015.09
2019-02-23T03:54:01.350Z,1015.13
2019-02-23T03:55:01.338Z,1015.14
2019-02-23T03:56:01.362Z,1015.16
2019-02-23T03:57:01.288Z,1015.24
2019-02-23T03:58:01.304Z,1015.07
2019-02-23T03:59:01.295Z,1015.15
2019-02-23T04:00:01.263Z,1015.07
2019-02-23T04:01:01.328Z,1015.16
2019-02-23T04:02:01.256Z,1015.10
2019-02-23T04:03:01.305Z,1015.13
2019-02-23T04:04:01.235Z,1015.13
2019-02-23T04:05:01.216Z,1015.12
2019-02-23T04:06:01.193Z,1015.16
2019-02-23T04:07:01.207Z,1015.18
2019-02-23T04:08:01.202Z,1015.23
2019-02-23T04:09:02.846Z,1015.26
2019-02-23T04:10:01.154Z,1015.22
2019-02-23T04:11:01.142Z,1015.31
2019-02-23T04:12:01.152Z,1015.32
2019-02-23T04:13:01.141Z,1015.25
2019-02-23T04:14:01.115Z,1015.20
2019-02-23T04:15:01.103Z,1015.25
2019-02-23T04:16:01.087Z,1015.35
2019-02-23T04:17:01.087Z,1015.26
2019-02-23T04:18:01.072Z,1015.31
2019-02-23T04:19:01.102Z,1015.31
2019-02-23T04:20:01.095Z,1015.33
2019-02-23T04:21:02.150Z,1015.36
2019-02-23T04:22:01.054Z,1015.28
2019-02-23T04:23:01.027Z,1015.38
2019-02-23T04:24:01.007Z,1015.35
2019-02-23T04:25:01.066Z,1015.39
2019-02-23T04:26:01.029Z,1015.41
2019-02-23T04:27:00.993Z,1015.47
2019-02-23T04:28:00.964Z,1015.42
2019-02-23T04:29:00.956Z,1015.39
2019-02-23T04:30:00.979Z,1015.40
2019-02-23T04:31:00.969Z,1015.45
2019-02-23T04:32:00.920Z,1015.44
2019-02-23T04:33:00.918Z,1015.40
2019-02-23T04:34:00.907Z,1015.42
2019-02-23T04:35:00.890Z,1015.43
2019-02-23T04:36:00.898Z,1015.41
2019-02-23T04:37:00.888Z,1015.43
2019-02-23T04:38:00.863Z,1015.43
2019-02-23T04:39:00.857Z,1015.39
2019-02-23T04:40:00.839Z,1015.37
2019-02-23T04:41:00.838Z,1015.42
2019-02-23T04:42:00.828Z,1015.40
2019-02-23T04:43:00.831Z,1015.43
2019-02-23T04:44:00.822Z,1015.47
2019-02-23T04:45:00.811Z,1015.45
2019-02-23T04:46:00.783Z,1015.48
2019-02-23T04:47:00.779Z,1015.50
2019-02-23T04:48:00.809Z,1015.47
2019-02-23T04:49:00.783Z,1015.49
2019-02-23T04:50:00.743Z,1015.51
2019-02-23T04:51:00.725Z,1015.52
2019-02-23T04:52:00.721Z,1015.50
2019-02-23T04:53:00.709Z,1015.53
2019-02-23T04:54:00.719Z,1015.56
2019-02-23T04:55:00.718Z,1015.61
2019-02-23T04:56:00.683Z,1015.59
2019-02-23T04:57:00.694Z,1015.64
2019-02-23T04:58:00.691Z,1015.67
2019-02-23T04:59:00.679Z,1015.66
2019-02-23T05:00:00.632Z,1015.63
2019-02-23T05:01:00.645Z,1015.68
2019-02-23T05:02:00.635Z,1015.72
2019-02-23T05:03:00.618Z,1015.65
2019-02-23T05:04:00.608Z,1015.69
2019-02-23T05:05:00.580Z,1015.66
2019-02-23T05:06:00.574Z,1015.73
2019-02-23T05:07:00.599Z,1015.73
2019-02-23T05:08:00.549Z,1015.73
2019-02-23T05:09:00.545Z,1015.71
2019-02-23T05:10:00.541Z,1015.73
2019-02-23T05:11:00.516Z,1015.75
2019-02-23T05:12:00.531Z,1015.75
2019-02-23T05:13:00.572Z,1015.68
2019-02-23T05:14:00.491Z,1015.80
2019-02-23T05:15:00.473Z,1015.82
2019-02-23T05:16:00.483Z,1015.77
2019-02-23T05:17:00.459Z,1015.76
2019-02-23T05:18:00.440Z,1015.75
2019-02-23T05:19:00.458Z,1015.75
2019-02-23T05:20:00.429Z,1015.75
2019-02-23T05:21:00.434Z,1015.71
2019-02-23T05:22:00.409Z,1015.71
2019-02-23T05:23:00.391Z,1015.84
2019-02-23T05:24:00.394Z,1015.75
2019-02-23T05:25:00.418Z,1015.73
2019-02-23T05:26:00.398Z,1015.73
2019-02-23T05:27:00.359Z,1015.76
2019-02-23T05:28:00.340Z,1015.70
2019-02-23T05:29:00.388Z,1015.70
2019-02-23T05:30:00.442Z,1015.71
2019-02-23T05:31:00.334Z,1015.63
2019-02-23T05:32:00.295Z,1015.65
2019-02-23T05:33:00.283Z,1015.62
2019-02-23T05:34:00.331Z,1015.71
2019-02-23T05:35:00.343Z,1015.66
2019-02-23T05:36:00.251Z,1015.68
2019-02-23T05:37:00.264Z,1015.73
2019-02-23T05:38:00.292Z,1015.68
2019-02-23T05:39:00.243Z,1015.69
2019-02-23T05:40:00.358Z,1015.73
2019-02-23T05:41:00.202Z,1015.66
2019-02-23T05:42:00.214Z,1015.68
2019-02-23T05:43:01.390Z,1015.68
2019-02-23T05:44:00.198Z,1015.68
2019-02-23T05:45:00.396Z,1015.70
2019-02-23T05:46:00.145Z,1015.72
2019-02-23T05:47:00.197Z,1015.78
2019-02-23T05:48:00.180Z,1015.70
2019-02-23T05:49:00.176Z,1015.73
2019-02-23T05:50:00.153Z,1015.70
2019-02-23T05:51:00.100Z,1015.72
2019-02-23T05:52:00.140Z,1015.68
2019-02-23T05:53:00.093Z,1015.70
2019-02-23T05:54:00.077Z,1015.76
2019-02-23T05:55:00.324Z,1015.76
2019-02-23T05:56:00.075Z,1015.73
2019-02-23T05:57:00.077Z,1015.77
2019-02-23T05:58:00.044Z,1015.75
2019-02-23T05:59:00.032Z,1015.73
2019-02-23T06:00:00.026Z,1015.76
2019-02-23T06:01:00.069Z,1015.76
2019-02-23T06:01:59.987Z,1015.78
2019-02-23T06:02:59.987Z,1015.80
2019-02-23T06:03:59.968Z,1015.82
2019-02-23T06:04:59.984Z,1015.77
2019-02-23T06:05:59.967Z,1015.77
2019-02-23T06:06:59.950Z,1015.77
2019-02-23T06:07:59.927Z,1015.74
2019-02-23T06:08:59.906Z,1015.79
2019-02-23T06:10:00.593Z,1015.80
2019-02-23T06:10:59.933Z,1015.76
2019-02-23T06:11:59.888Z,1015.77
2019-02-23T06:12:59.894Z,1015.81
2019-02-23T06:13:59.862Z,1015.86
2019-02-23T06:14:59.861Z,1015.82
2019-02-23T06:15:59.869Z,1015.92
2019-02-23T06:16:59.829Z,1015.84
2019-02-23T06:17:59.818Z,1015.83
2019-02-23T06:18:59.866Z,1015.91
2019-02-23T06:19:59.793Z,1015.86
2019-02-23T06:20:59.801Z,1015.97
2019-02-23T06:21:59.796Z,1015.93
2019-02-23T06:22:59.777Z,1015.97
2019-02-23T06:23:59.755Z,1016.03
2019-02-23T06:24:59.781Z,1016.08
2019-02-23T06:25:59.751Z,1016.09
2019-02-23T06:26:59.719Z,1016.11
2019-02-23T06:27:59.715Z,1016.13
2019-02-23T06:28:59.703Z,1016.02
2019-02-23T06:29:59.715Z,1016.03
2019-02-23T06:30:59.719Z,1016.01
2019-02-23T06:31:59.672Z,1016.05
2019-02-23T06:32:59.684Z,1016.07
2019-02-23T06:33:59.677Z,1016.05
2019-02-23T06:34:59.649Z,1016.07
2019-02-23T06:35:59.649Z,1016.14
2019-02-23T06:36:59.641Z,1016.11
2019-02-23T06:37:59.612Z,1016.11
2019-02-23T06:38:59.602Z,1016.07
2019-02-23T06:39:59.589Z,1016.08
2019-02-23T06:40:59.575Z,1016.10
2019-02-23T06:41:59.563Z,1016.06
2019-02-23T06:42:59.575Z,1016.11
2019-02-23T06:43:59.547Z,1016.09
2019-02-23T06:44:59.540Z,1016.12
2019-02-23T06:45:59.553Z,1016.11
2019-02-23T06:46:59.523Z,1016.12
2019-02-23T06:47:59.506Z,1016.16
2019-02-23T06:48:59.511Z,1016.14
2019-02-23T06:49:59.494Z,1016.20
2019-02-23T06:50:59.490Z,1016.23
2019-02-23T06:52:04.249Z,1016.19
2019-02-23T06:53:00.450Z,1016.20
2019-02-23T06:53:59.440Z,1016.17
2019-02-23T06:54:59.482Z,1016.26
2019-02-23T06:55:59.417Z,1016.28
2019-02-23T06:56:59.428Z,1016.28
2019-02-23T06:57:59.460Z,1016.25
2019-02-23T06:58:59.385Z,1016.29
2019-02-23T06:59:59.375Z,1016.35
2019-02-23T07:00:59.422Z,1016.34
2019-02-23T07:01:59.357Z,1016.36
2019-02-23T07:02:59.343Z,1016.39
2019-02-23T07:03:59.341Z,1016.36
2019-02-23T07:04:59.325Z,1016.40
2019-02-23T07:05:59.312Z,1016.43
2019-02-23T07:06:59.340Z,1016.45
2019-02-23T07:07:59.293Z,1016.46
2019-02-23T07:08:59.286Z,1016.42
2019-02-23T07:09:59.286Z,1016.41
2019-02-23T07:10:59.261Z,1016.43
2019-02-23T07:11:59.243Z,1016.41
2019-02-23T07:12:59.252Z,1016.39
2019-02-23T07:13:59.223Z,1016.32
2019-02-23T07:14:59.218Z,1016.37
2019-02-23T07:15:59.214Z,1016.35
2019-02-23T07:16:59.193Z,1016.35
2019-02-23T07:17:59.180Z,1016.34
2019-02-23T07:18:59.192Z,1016.34
2019-02-23T07:19:59.162Z,1016.36
2019-02-23T07:20:59.153Z,1016.38
2019-02-23T07:21:59.136Z,1016.40
2019-02-23T07:22:59.187Z,1016.44
2019-02-23T07:23:59.116Z,1016.41
2019-02-23T07:24:59.129Z,1016.41
2019-02-23T07:25:59.097Z,1016.33
2019-02-23T07:26:59.088Z,1016.32
2019-02-23T07:27:59.109Z,1016.35
2019-02-23T07:28:59.111Z,1016.31
2019-02-23T07:29:59.071Z,1016.32
2019-02-23T07:30:59.064Z,1016.37
2019-02-23T07:31:59.030Z,1016.33
2019-02-23T07:32:59.051Z,1016.35
2019-02-23T07:33:59.022Z,1016.32
2019-02-23T07:34:58.998Z,1016.38
2019-02-23T07:35:58.990Z,1016.33
2019-02-23T07:36:59.033Z,1016.32
2019-02-23T07:37:58.999Z,1016.34
2019-02-23T07:38:58.966Z,1016.36
2019-02-23T07:39:58.948Z,1016.42
2019-02-23T07:40:58.939Z,1016.38
2019-02-23T07:41:58.933Z,1016.38
2019-02-23T07:42:58.954Z,1016.37
2019-02-23T07:43:58.909Z,1016.27
2019-02-23T07:44:58.957Z,1016.27
2019-02-23T07:45:58.923Z,1016.28
2019-02-23T07:46:58.884Z,1016.34
2019-02-23T07:47:58.901Z,1016.29
2019-02-23T07:48:58.908Z,1016.26
2019-02-23T07:49:58.849Z,1016.32
2019-02-23T07:50:58.873Z,1016.30
2019-02-23T07:51:58.838Z,1016.36
2019-02-23T07:52:58.833Z,1016.34
2019-02-23T07:53:58.886Z,1016.32
2019-02-23T07:54:58.817Z,1016.31
2019-02-23T07:55:58.796Z,1016.32
2019-02-23T07:56:58.780Z,1016.36
2019-02-23T07:57:58.776Z,1016.36
2019-02-23T07:58:58.782Z,1016.41
2019-02-23T07:59:58.767Z,1016.33
2019-02-23T08:00:58.789Z,1016.35
2019-02-23T08:01:58.753Z,1016.32
2019-02-23T08:02:58.712Z,1016.35
2019-02-23T08:03:58.734Z,1016.28
2019-02-23T08:04:58.715Z,1016.33
2019-02-23T08:05:58.683Z,1016.29
2019-02-23T08:06:58.694Z,1016.27
2019-02-23T08:07:58.680Z,1016.20
2019-02-23T08:08:58.665Z,1016.23
2019-02-23T08:09:58.642Z,1016.18
2019-02-23T08:10:58.669Z,1016.16
2019-02-23T08:11:58.654Z,1016.13
2019-02-23T08:12:58.656Z,1016.19
2019-02-23T08:13:58.612Z,1016.15
2019-02-23T08:14:58.604Z,1016.15
2019-02-23T08:15:58.582Z,1016.26
2019-02-23T08:16:58.582Z,1016.25
2019-02-23T08:17:58.561Z,1016.23
2019-02-23T08:18:59.212Z,1016.16
2019-02-23T08:19:58.555Z,1016.26
2019-02-23T08:20:58.555Z,1016.17
2019-02-23T08:21:58.522Z,1016.23
2019-02-23T08:22:58.538Z,1016.23
2019-02-23T08:23:58.506Z,1016.30
2019-02-23T08:24:59.264Z,1016.26
2019-02-23T08:25:58.504Z,1016.23
2019-02-23T08:26:58.470Z,1016.26
2019-02-23T08:27:58.485Z,1016.24
2019-02-23T08:28:58.456Z,1016.13
2019-02-23T08:29:58.450Z,1016.12
2019-02-23T08:30:58.476Z,1016.07
2019-02-23T08:31:58.420Z,1016.07
2019-02-23T08:32:58.410Z,1016.15
2019-02-23T08:33:58.416Z,1016.06
2019-02-23T08:34:58.427Z,1016.07
2019-02-23T08:35:58.387Z,1016.01
2019-02-23T08:36:58.424Z,1016.01
2019-02-23T08:37:58.353Z,1016.07
2019-02-23T08:38:58.347Z,1016.09
2019-02-23T08:39:58.347Z,1016.03
2019-02-23T08:40:58.318Z,1016.00
2019-02-23T08:41:58.336Z,1015.98
2019-02-23T08:42:58.328Z,1015.99
2019-02-23T08:43:58.282Z,1016.00
2019-02-23T08:44:58.285Z,1016.00
2019-02-23T08:45:58.296Z,1015.95
2019-02-23T08:46:58.296Z,1015.94
2019-02-23T08:47:58.254Z,1016.02
2019-02-23T08:48:58.309Z,1015.92
2019-02-23T08:49:58.230Z,1016.01
2019-02-23T08:50:58.219Z,1015.97
2019-02-23T08:51:58.262Z,1015.97
2019-02-23T08:52:58.192Z,1015.97
2019-02-23T08:53:58.210Z,1016.00
2019-02-23T08:54:58.178Z,1015.99
2019-02-23T08:55:58.160Z,1015.99
2019-02-23T08:56:58.140Z,1016.03
2019-02-23T08:57:58.147Z,1016.06
2019-02-23T08:58:58.115Z,1016.03
2019-02-23T08:59:58.171Z,1016.11
2019-02-23T09:00:58.171Z,1016.06
2019-02-23T09:01:58.105Z,1015.99
2019-02-23T09:02:58.092Z,1015.95
2019-02-23T09:03:58.100Z,1016.02
2019-02-23T09:04:58.081Z,1015.93
2019-02-23T09:05:58.057Z,1015.94
2019-02-23T09:06:58.054Z,1016.02
2019-02-23T09:07:58.012Z,1016.05
2019-02-23T09:08:58.027Z,1016.08
2019-02-23T09:09:58.007Z,1016.10
2019-02-23T09:10:57.984Z,1016.00
2019-02-23T09:11:57.985Z,1016.08
2019-02-23T09:12:58.010Z,1016.06
2019-02-23T09:13:57.953Z,1016.04
2019-02-23T09:14:57.984Z,1016.12
2019-02-23T09:15:57.958Z,1016.11
2019-02-23T09:16:57.918Z,1016.13
2019-02-23T09:17:57.903Z,1016.19
2019-02-23T09:18:57.953Z,1016.19
2019-02-23T09:19:57.920Z,1016.15
2019-02-23T09:20:57.905Z,1016.08
2019-02-23T09:21:57.857Z,1016.13
2019-02-23T09:23:00.418Z,1016.17
2019-02-23T09:23:57.898Z,1016.17
2019-02-23T09:24:57.856Z,1016.11
2019-02-23T09:25:57.958Z,1016.09
2019-02-23T09:26:57.808Z,1016.08
2019-02-23T09:27:57.832Z,1016.11
2019-02-23T09:28:57.832Z,1016.09
2019-02-23T09:29:57.770Z,1016.15
2019-02-23T09:30:57.794Z,1016.16
2019-02-23T09:31:57.748Z,1016.20
2019-02-23T09:32:57.730Z,1016.24
2019-02-23T09:33:57.763Z,1016.20
2019-02-23T09:34:57.746Z,1016.24
2019-02-23T09:35:57.702Z,1016.21
2019-02-23T09:36:57.745Z,1016.25
2019-02-23T09:37:57.708Z,1016.27
2019-02-23T09:38:57.695Z,1016.37
2019-02-23T09:39:57.680Z,1016.50
2019-02-23T09:40:57.668Z,1016.66
2019-02-23T09:42:07.207Z,1016.72
2019-02-23T09:42:58.651Z,1016.94
2019-02-23T09:43:57.620Z,1017.01
2019-02-23T09:44:57.646Z,1017.17
2019-02-23T09:45:57.618Z,1017.32
2019-02-23T09:46:57.650Z,1017.45
2019-02-23T09:47:57.552Z,1017.32
2019-02-23T09:48:57.703Z,1017.33
2019-02-23T09:49:57.548Z,1017.34
2019-02-23T09:50:57.527Z,1017.18
2019-02-23T09:51:57.505Z,1017.00
2019-02-23T09:52:57.534Z,1017.03
2019-02-23T09:53:57.499Z,1017.05
2019-02-23T09:54:57.524Z,1017.01
2019-02-23T09:55:57.461Z,1017.08
2019-02-23T09:56:57.462Z,1017.07
2019-02-23T09:57:57.481Z,1017.07
2019-02-23T09:58:57.463Z,1017.20
2019-02-23T09:59:57.448Z,1017.15
2019-02-23T10:00:57.459Z,1017.24
2019-02-23T10:01:57.405Z,1017.34
2019-02-23T10:02:57.401Z,1017.34
2019-02-23T10:03:57.401Z,1017.46
2019-02-23T10:04:57.375Z,1017.46
2019-02-23T10:05:57.379Z,1017.45
2019-02-23T10:06:57.380Z,1017.38
2019-02-23T10:07:57.364Z,1017.27
2019-02-23T10:08:57.352Z,1017.30
2019-02-23T10:09:57.356Z,1017.17
2019-02-23T10:10:57.702Z,1017.28
2019-02-23T10:11:57.337Z,1017.05
2019-02-23T10:12:57.331Z,1017.26
2019-02-23T10:13:57.278Z,1017.33
2019-02-23T10:14:57.319Z,1017.46
2019-02-23T10:15:57.309Z,1017.22
2019-02-23T10:16:57.281Z,1017.31
2019-02-23T10:17:57.247Z,1017.41
2019-02-23T10:18:57.315Z,1017.47
2019-02-23T10:19:57.193Z,1017.12
2019-02-23T10:20:57.176Z,1017.29
2019-02-23T10:21:57.192Z,1017.30
2019-02-23T10:22:57.172Z,1017.24
2019-02-23T10:23:57.177Z,1017.18
2019-02-23T10:24:57.160Z,1017.30
2019-02-23T10:25:57.121Z,1017.41
2019-02-23T10:26:57.134Z,1017.31
2019-02-23T10:27:59.230Z,1017.29
2019-02-23T10:28:57.108Z,1017.14
2019-02-23T10:29:57.103Z,1017.27
2019-02-23T10:30:57.081Z,1017.29
2019-02-23T10:31:57.083Z,1017.31
2019-02-23T10:32:57.078Z,1017.29
2019-02-23T10:33:57.028Z,1016.98
2019-02-23T10:34:57.033Z,1017.15
2019-02-23T10:35:57.047Z,1017.32
2019-02-23T10:36:57.094Z,1017.22
2019-02-23T10:37:56.982Z,1017.38
2019-02-23T10:38:57.012Z,1017.45
2019-02-23T10:39:56.995Z,1017.42
2019-02-23T10:40:56.999Z,1017.43
2019-02-23T10:41:56.996Z,1017.46
2019-02-23T10:42:57.039Z,1017.34
2019-02-23T10:43:56.929Z,1017.25
2019-02-23T10:44:56.935Z,1017.23
2019-02-23T10:45:56.975Z,1017.03
2019-02-23T10:46:56.915Z,1017.07
2019-02-23T10:47:56.912Z,1017.09
2019-02-23T10:48:56.966Z,1017.06
2019-02-23T10:49:56.896Z,1017.15
2019-02-23T10:50:56.876Z,1017.17
2019-02-23T10:51:56.829Z,1017.25
2019-02-23T10:52:56.815Z,1017.10
2019-02-23T10:53:56.846Z,1016.98
2019-02-23T10:54:56.912Z,1016.64
2019-02-23T10:55:56.822Z,1016.21
2019-02-23T10:56:56.796Z,1016.06
2019-02-23T10:57:56.762Z,1016.13
2019-02-23T10:58:56.745Z,1016.11
2019-02-23T10:59:56.760Z,1016.16
2019-02-23T11:00:56.741Z,1016.08
2019-02-23T11:01:56.717Z,1016.13
2019-02-23T11:02:56.739Z,1016.15
2019-02-23T11:03:56.720Z,1016.13
2019-02-23T11:04:56.685Z,1016.13
2019-02-23T11:05:56.680Z,1016.10
2019-02-23T11:06:56.678Z,1016.11
2019-02-23T11:07:56.643Z,1016.07
2019-02-23T11:08:56.643Z,1016.15
2019-02-23T11:09:56.632Z,1016.11
2019-02-23T11:10:56.636Z,1016.05
2019-02-23T11:11:56.604Z,1016.00
2019-02-23T11:12:56.613Z,1015.98
2019-02-23T11:13:56.597Z,1016.02
2019-02-23T11:14:56.605Z,1016.02
2019-02-23T11:15:56.555Z,1016.00
2019-02-23T11:16:56.557Z,1016.03
2019-02-23T11:17:56.560Z,1015.93
2019-02-23T11:18:56.558Z,1015.92
2019-02-23T11:19:56.558Z,1015.98
2019-02-23T11:20:56.517Z,1015.93
2019-02-23T11:21:56.505Z,1015.94
2019-02-23T11:22:56.496Z,1015.89
2019-02-23T11:23:56.507Z,1015.88
2019-02-23T11:24:56.477Z,1015.92
2019-02-23T11:25:56.444Z,1015.86
2019-02-23T11:26:56.423Z,1015.86
2019-02-23T11:27:56.436Z,1015.88
2019-02-23T11:28:56.437Z,1015.78
2019-02-23T11:29:56.403Z,1015.84
2019-02-23T11:30:56.412Z,1015.82
2019-02-23T11:31:56.425Z,1015.82
2019-02-23T11:32:56.346Z,1015.78
2019-02-23T11:33:56.387Z,1015.79
2019-02-23T11:34:56.333Z,1015.77
2019-02-23T11:35:56.322Z,1015.83
2019-02-23T11:36:56.319Z,1015.86
2019-02-23T11:37:56.286Z,1015.86
2019-02-23T11:38:56.283Z,1015.75
2019-02-23T11:39:56.293Z,1015.82
2019-02-23T11:40:56.276Z,1015.74
2019-02-23T11:41:56.244Z,1015.72
2019-02-23T11:42:56.282Z,1015.66
2019-02-23T11:43:56.223Z,1015.65
2019-02-23T11:44:56.232Z,1015.68
2019-02-23T11:45:56.217Z,1015.53
2019-02-23T11:47:00.204Z,1015.56
2019-02-23T11:47:56.169Z,1015.59
2019-02-23T11:48:56.307Z,1015.61
2019-02-23T11:49:56.185Z,1015.64
2019-02-23T11:50:56.152Z,1015.60
2019-02-23T11:51:56.135Z,1015.54
2019-02-23T11:52:56.123Z,1015.54
2019-02-23T11:53:56.155Z,1015.49
2019-02-23T11:54:56.111Z,1015.57
2019-02-23T11:55:56.080Z,1015.48
2019-02-23T11:56:56.209Z,1015.48
2019-02-23T11:57:56.060Z,1015.53
2019-02-23T11:58:56.100Z,1015.44
2019-02-23T11:59:56.049Z,1015.45
2019-02-23T12:00:56.091Z,1015.38
2019-02-23T12:01:55.999Z,1015.41
2019-02-23T12:02:56.028Z,1015.35
2019-02-23T12:03:56.030Z,1015.40
2019-02-23T12:04:56.007Z,1015.37